createdAt,value
2017-12-29T00:00:35.365Z,58.00
2017-12-29T00:03:02.988Z,56.60
2017-12-29T00:05:30.612Z,56.90
2017-12-29T00:07:58.315Z,56.90
2017-12-29T00:10:25.940Z,56.90
2017-12-29T00:12:53.563Z,56.80
2017-12-29T00:15:21.240Z,57.00
2017-12-29T00:17:48.863Z,57.10
2017-12-29T00:20:16.487Z,56.60
2017-12-29T00:22:44.198Z,57.20
2017-12-29T00:25:11.834Z,57.00
2017-12-29T00:27:39.451Z,54.50
2017-12-29T00:30:07.136Z,56.60
2017-12-29T00:32:34.758Z,55.00
2017-12-29T00:35:02.380Z,55.80
2017-12-29T00:37:30.081Z,55.40
2017-12-29T00:40:03.315Z,54.20
2017-12-29T00:42:31.010Z,56.30
2017-12-29T00:44:58.640Z,56.40
2017-12-29T00:47:26.265Z,56.60
2017-12-29T00:49:53.944Z,56.30
2017-12-29T00:52:21.563Z,56.20
2017-12-29T00:54:49.215Z,56.20
2017-12-29T00:57:16.872Z,57.20
2017-12-29T00:59:45.252Z,58.60
2017-12-29T01:02:12.871Z,57.20
2017-12-29T01:04:41.403Z,56.30
2017-12-29T01:07:09.019Z,57.70
2017-12-29T01:12:17.808Z,58.80
2017-12-29T01:14:45.444Z,59.20
2017-12-29T01:19:40.735Z,57.80
2017-12-29T01:22:08.353Z,57.40
2017-12-29T01:24:35.984Z,59.00
2017-12-29T01:27:03.681Z,61.00
2017-12-29T01:29:31.305Z,61.90
2017-12-29T01:31:58.926Z,62.60
2017-12-29T01:34:26.625Z,59.70
2017-12-29T01:36:54.243Z,60.00
2017-12-29T01:39:21.868Z,59.90
2017-12-29T01:41:49.567Z,61.60
2017-12-29T01:44:17.191Z,61.90
2017-12-29T01:46:44.816Z,62.10
2017-12-29T01:54:26.520Z,63.70
2017-12-29T01:56:54.151Z,63.10
2017-12-29T01:59:21.771Z,62.30
2017-12-29T02:01:49.467Z,63.50
2017-12-29T02:04:17.098Z,65.00
2017-12-29T02:06:44.720Z,67.00
2017-12-29T02:09:12.425Z,68.30
2017-12-29T02:11:40.043Z,69.60
2017-12-29T02:14:07.684Z,71.10
2017-12-29T02:16:35.333Z,71.20
2017-12-29T02:19:02.958Z,71.80
2017-12-29T02:21:31.547Z,71.60
2017-12-29T02:23:59.241Z,69.30
2017-12-29T02:26:26.907Z,68.10
2017-12-29T02:28:54.486Z,67.00
2017-12-29T02:31:22.172Z,67.60
2017-12-29T02:33:49.788Z,67.90
2017-12-29T02:36:17.413Z,68.20
2017-12-29T02:38:45.127Z,68.60
2017-12-29T02:41:12.747Z,68.00
2017-12-29T02:43:40.380Z,67.60
2017-12-29T02:46:08.064Z,69.70
2017-12-29T02:48:35.689Z,69.80
2017-12-29T02:51:03.324Z,69.60
2017-12-29T02:53:31.023Z,71.40
2017-12-29T02:55:58.652Z,72.40
2017-12-29T02:58:26.277Z,71.90
2017-12-29T03:00:53.955Z,71.40
2017-12-29T03:03:21.583Z,72.60
2017-12-29T03:05:49.208Z,72.00
2017-12-29T03:10:45.370Z,74.50
2017-12-29T03:13:13.867Z,73.30
2017-12-29T03:15:41.547Z,72.80
2017-12-29T03:20:50.344Z,74.30
2017-12-29T03:23:17.991Z,74.00
2017-12-29T03:25:45.615Z,73.70
2017-12-29T03:28:13.312Z,73.70
2017-12-29T03:30:40.936Z,73.00
2017-12-29T03:33:08.547Z,72.30
2017-12-29T03:35:36.242Z,72.10
2017-12-29T03:38:03.869Z,72.20
2017-12-29T03:40:31.543Z,71.00
2017-12-29T03:43:00.054Z,70.50
2017-12-29T03:45:27.683Z,71.30
2017-12-29T03:47:55.308Z,71.60
2017-12-29T03:52:51.025Z,77.90
2017-12-29T03:55:18.658Z,78.80
2017-12-29T03:57:46.330Z,78.80
2017-12-29T04:00:13.951Z,78.00
2017-12-29T04:02:41.571Z,77.40
2017-12-29T04:07:36.930Z,76.10
2017-12-29T04:10:04.531Z,75.40
2017-12-29T04:12:32.942Z,74.60
2017-12-29T04:17:28.198Z,75.00
2017-12-29T04:19:55.903Z,76.80
2017-12-29T04:22:23.531Z,76.10
2017-12-29T04:24:52.474Z,75.50
2017-12-29T04:27:20.178Z,74.10
2017-12-29T04:29:47.802Z,74.70
2017-12-29T04:32:15.433Z,78.00
2017-12-29T04:34:43.137Z,77.30
2017-12-29T04:37:10.763Z,76.40
2017-12-29T04:39:38.394Z,75.90
2017-12-29T04:42:06.106Z,75.90
2017-12-29T04:49:40.501Z,75.30
2017-12-29T04:52:08.123Z,75.60
2017-12-29T04:54:35.738Z,75.90
2017-12-29T04:57:03.445Z,75.90
2017-12-29T04:59:32.042Z,76.10
2017-12-29T05:01:59.657Z,75.80
2017-12-29T05:04:27.336Z,75.20
2017-12-29T05:09:22.568Z,74.60
2017-12-29T05:11:50.273Z,75.40
2017-12-29T05:14:17.907Z,76.70
2017-12-29T05:16:45.551Z,76.70
2017-12-29T05:19:13.243Z,76.30
2017-12-29T05:21:40.869Z,76.00
2017-12-29T05:24:09.331Z,78.60
2017-12-29T05:26:37.048Z,77.60
2017-12-29T05:29:04.674Z,76.20
2017-12-29T05:31:32.301Z,75.70
2017-12-29T05:33:59.991Z,76.10
2017-12-29T05:36:27.618Z,76.30
2017-12-29T05:38:55.243Z,76.30
2017-12-29T05:41:22.955Z,75.90
2017-12-29T05:43:50.580Z,75.30
2017-12-29T05:46:18.205Z,75.20
2017-12-29T05:48:45.911Z,74.80
2017-12-29T05:51:13.532Z,73.80
2017-12-29T05:53:42.102Z,74.20
2017-12-29T05:56:09.800Z,73.90
2017-12-29T05:58:37.431Z,74.80
2017-12-29T06:01:05.056Z,74.70
2017-12-29T06:03:32.740Z,74.80
2017-12-29T06:06:00.373Z,75.00
2017-12-29T06:08:28.003Z,74.70
2017-12-29T06:10:56.556Z,74.20
2017-12-29T06:13:24.162Z,74.30
2017-12-29T06:18:31.798Z,73.80
2017-12-29T06:20:59.414Z,74.80
2017-12-29T06:23:27.038Z,74.50
2017-12-29T06:25:54.719Z,74.80
2017-12-29T06:28:22.364Z,74.30
2017-12-29T06:30:49.986Z,74.30
2017-12-29T06:33:17.688Z,74.10
2017-12-29T06:35:45.318Z,75.20
2017-12-29T06:40:40.617Z,76.00
2017-12-29T06:43:08.246Z,76.20
2017-12-29T06:45:35.875Z,76.10
2017-12-29T06:48:03.561Z,76.50
2017-12-29T06:50:31.188Z,77.10
2017-12-29T06:52:58.819Z,77.00
2017-12-29T06:55:26.501Z,76.90
2017-12-29T07:00:21.744Z,77.40
2017-12-29T07:02:49.443Z,76.90
2017-12-29T07:05:17.071Z,76.00
2017-12-29T07:07:44.766Z,76.50
2017-12-29T07:10:12.472Z,77.10
2017-12-29T07:12:40.097Z,76.80
2017-12-29T07:15:07.734Z,77.20
2017-12-29T07:17:35.758Z,77.20
2017-12-29T07:20:03.388Z,77.00
2017-12-29T07:22:31.021Z,76.90
2017-12-29T07:24:58.700Z,76.40
2017-12-29T07:27:26.332Z,76.70
2017-12-29T07:29:53.965Z,75.10
2017-12-29T07:32:22.478Z,76.40
2017-12-29T07:34:50.099Z,78.30
2017-12-29T07:42:24.485Z,74.80
2017-12-29T07:44:52.190Z,72.40
2017-12-29T07:47:19.820Z,70.90
2017-12-29T07:49:47.447Z,66.60
2017-12-29T07:52:15.121Z,66.00
2017-12-29T07:54:42.745Z,66.50
2017-12-29T07:57:10.368Z,65.50
2017-12-29T07:59:38.077Z,65.40
2017-12-29T08:02:05.703Z,67.20
2017-12-29T08:04:33.335Z,67.30
2017-12-29T08:07:01.774Z,66.10
2017-12-29T08:11:57.023Z,65.50
2017-12-29T08:14:24.731Z,65.60
2017-12-29T08:16:52.349Z,65.10
2017-12-29T08:19:19.983Z,64.20
2017-12-29T08:21:47.665Z,65.50
2017-12-29T08:24:15.301Z,63.90
2017-12-29T08:26:42.927Z,60.40
2017-12-29T08:29:10.627Z,59.70
2017-12-29T08:31:38.255Z,61.30
2017-12-29T08:34:05.880Z,56.40
2017-12-29T08:36:33.586Z,59.30
2017-12-29T08:39:01.208Z,55.60
2017-12-29T08:41:28.834Z,57.50
2017-12-29T08:43:56.531Z,55.60
2017-12-29T08:46:24.159Z,54.90
2017-12-29T08:48:51.791Z,53.80
2017-12-29T08:51:19.466Z,53.00
2017-12-29T08:53:47.095Z,51.90
2017-12-29T08:56:14.714Z,51.20
2017-12-29T08:58:42.394Z,53.50
2017-12-29T09:01:10.010Z,52.50
2017-12-29T09:06:17.747Z,49.10
2017-12-29T09:08:45.385Z,49.30
2017-12-29T09:11:13.008Z,49.40
2017-12-29T09:13:40.716Z,50.10
2017-12-29T09:16:08.335Z,47.40
2017-12-29T09:21:03.681Z,50.10
2017-12-29T09:23:31.302Z,47.90
2017-12-29T09:25:58.936Z,48.00
2017-12-29T09:28:26.621Z,45.70
2017-12-29T09:30:54.246Z,45.00
2017-12-29T09:33:21.876Z,45.10
2017-12-29T09:35:49.552Z,47.20
2017-12-29T09:38:17.185Z,47.10
2017-12-29T09:40:46.189Z,43.20
2017-12-29T09:43:13.890Z,45.50
2017-12-29T09:45:41.527Z,44.30
2017-12-29T09:48:09.135Z,43.40
2017-12-29T09:50:36.822Z,45.30
2017-12-29T09:53:04.444Z,42.20
2017-12-29T09:55:32.066Z,42.10
2017-12-29T09:57:59.768Z,43.70
2017-12-29T10:00:27.386Z,40.90
2017-12-29T10:02:55.926Z,40.20
2017-12-29T10:05:23.410Z,39.40
2017-12-29T10:07:51.034Z,39.90
2017-12-29T10:10:18.650Z,38.30
2017-12-29T10:12:46.364Z,38.70
2017-12-29T10:15:13.987Z,39.80
2017-12-29T10:17:41.618Z,38.20
2017-12-29T10:20:09.292Z,37.70
2017-12-29T10:22:36.915Z,37.60
2017-12-29T10:25:04.531Z,39.20
2017-12-29T10:27:33.044Z,41.50
2017-12-29T10:32:39.817Z,38.00
2017-12-29T10:35:07.438Z,38.10
2017-12-29T10:37:35.069Z,37.20
2017-12-29T10:40:02.748Z,37.50
2017-12-29T10:42:30.373Z,39.20
2017-12-29T10:44:57.987Z,37.80
2017-12-29T10:47:25.664Z,36.40
2017-12-29T10:49:53.290Z,39.60
2017-12-29T10:52:20.911Z,37.50
2017-12-29T10:54:49.458Z,41.20
2017-12-29T10:57:17.073Z,38.30
2017-12-29T11:02:12.443Z,38.00
2017-12-29T11:04:40.076Z,36.50
2017-12-29T11:07:07.707Z,38.50
2017-12-29T11:09:35.392Z,38.00
2017-12-29T11:12:03.010Z,42.60
2017-12-29T11:14:30.628Z,43.80
2017-12-29T11:16:58.299Z,41.10
2017-12-29T11:19:25.961Z,39.00
2017-12-29T11:21:53.544Z,38.20
2017-12-29T11:24:21.238Z,38.60
2017-12-29T11:29:17.198Z,35.80
2017-12-29T11:31:44.873Z,38.00
2017-12-29T11:34:12.505Z,36.20
2017-12-29T11:36:40.146Z,38.40
2017-12-29T11:39:07.824Z,39.60
2017-12-29T11:41:36.205Z,37.10
2017-12-29T11:44:03.831Z,37.40
2017-12-29T11:46:31.508Z,35.50
2017-12-29T11:48:59.135Z,34.60
2017-12-29T11:51:26.754Z,35.30
2017-12-29T11:53:54.446Z,34.40
2017-12-29T11:59:01.209Z,34.30
2017-12-29T12:01:28.828Z,31.10
2017-12-29T12:03:56.444Z,31.60
2017-12-29T12:06:24.151Z,30.80
2017-12-29T12:08:51.772Z,31.50
2017-12-29T12:11:19.390Z,31.70
2017-12-29T12:13:47.067Z,32.20
2017-12-29T12:16:14.689Z,32.20
2017-12-29T12:18:42.304Z,33.00
2017-12-29T12:21:09.991Z,33.90
2017-12-29T12:23:37.626Z,35.00
2017-12-29T12:26:05.244Z,33.50
2017-12-29T12:28:32.924Z,34.20
2017-12-29T12:31:01.483Z,32.90
2017-12-29T12:33:29.101Z,33.40
2017-12-29T12:35:56.793Z,34.80
2017-12-29T12:38:24.421Z,34.00
2017-12-29T12:40:52.045Z,31.10
2017-12-29T12:43:19.772Z,32.50
2017-12-29T12:45:47.408Z,32.20
2017-12-29T12:48:15.025Z,34.20
2017-12-29T12:50:42.702Z,32.70
2017-12-29T12:53:10.323Z,32.60
2017-12-29T12:55:37.943Z,32.10
2017-12-29T12:58:05.881Z,29.10
2017-12-29T13:00:33.354Z,29.60
2017-12-29T13:03:00.988Z,30.00
2017-12-29T13:05:28.690Z,29.20
2017-12-29T13:07:56.323Z,29.70
2017-12-29T13:10:23.940Z,29.90
2017-12-29T13:12:51.606Z,29.60
2017-12-29T13:15:19.228Z,31.50
2017-12-29T13:20:26.014Z,31.30
2017-12-29T13:22:53.628Z,29.30
2017-12-29T13:25:21.260Z,28.30
2017-12-29T13:27:48.922Z,28.10
2017-12-29T13:30:16.539Z,28.20
2017-12-29T13:32:44.163Z,26.30
2017-12-29T13:35:11.841Z,27.00
2017-12-29T13:37:39.458Z,27.70
2017-12-29T13:40:07.095Z,27.60
2017-12-29T13:42:34.779Z,27.60
2017-12-29T13:45:02.393Z,28.00
2017-12-29T13:47:30.011Z,28.00
2017-12-29T13:49:57.689Z,27.30
2017-12-29T13:54:52.924Z,28.50
2017-12-29T13:57:20.623Z,29.00
2017-12-29T13:59:48.240Z,28.40
2017-12-29T14:02:15.859Z,29.90
2017-12-29T14:04:43.545Z,28.70
2017-12-29T14:07:11.160Z,30.20
2017-12-29T14:09:39.593Z,28.90
2017-12-29T14:12:07.292Z,28.30
2017-12-29T14:14:34.919Z,28.90
2017-12-29T14:17:02.543Z,28.80
2017-12-29T14:19:30.214Z,26.50
2017-12-29T14:24:25.462Z,27.70
2017-12-29T14:26:53.149Z,27.00
2017-12-29T14:29:20.769Z,27.60
2017-12-29T14:31:48.392Z,28.70
2017-12-29T14:34:16.071Z,30.20
2017-12-29T14:36:43.694Z,30.10
2017-12-29T14:41:50.866Z,32.80
2017-12-29T14:44:18.478Z,34.20
2017-12-29T14:46:46.105Z,34.60
2017-12-29T14:49:13.784Z,36.10
2017-12-29T14:51:41.406Z,38.10
2017-12-29T14:54:09.027Z,39.10
2017-12-29T14:56:37.533Z,40.00
2017-12-29T14:59:05.152Z,40.70
2017-12-29T15:01:32.767Z,40.20
2017-12-29T15:04:00.449Z,41.20
2017-12-29T15:06:28.080Z,40.20
2017-12-29T15:08:55.715Z,40.40
2017-12-29T15:11:23.384Z,39.20
2017-12-29T15:16:18.634Z,38.70
2017-12-29T15:18:46.314Z,40.00
2017-12-29T15:21:13.962Z,39.10
2017-12-29T15:23:41.588Z,39.20
2017-12-29T15:28:36.916Z,38.80
2017-12-29T15:31:04.547Z,38.70
2017-12-29T15:33:32.230Z,39.90
2017-12-29T15:35:59.847Z,40.50
2017-12-29T15:38:27.471Z,42.20
2017-12-29T15:40:55.992Z,41.10
2017-12-29T15:43:23.614Z,42.70
2017-12-29T15:45:51.238Z,43.40
2017-12-29T15:48:18.946Z,44.60
2017-12-29T15:53:32.007Z,44.10
2017-12-29T15:55:59.644Z,43.70
2017-12-29T15:58:27.283Z,45.00
2017-12-29T16:00:54.989Z,46.00
2017-12-29T16:03:22.618Z,46.10
2017-12-29T16:05:50.248Z,44.40
2017-12-29T16:08:17.952Z,43.40
2017-12-29T16:10:45.576Z,44.70
2017-12-29T16:13:13.192Z,44.10
2017-12-29T16:15:40.877Z,44.60
2017-12-29T16:18:08.496Z,43.70
2017-12-29T16:20:36.118Z,44.40
2017-12-29T16:23:04.705Z,45.50
2017-12-29T16:25:32.327Z,46.00
2017-12-29T16:27:59.978Z,45.30
2017-12-29T16:30:27.681Z,46.20
2017-12-29T16:32:55.307Z,45.50
2017-12-29T16:35:22.941Z,45.00
2017-12-29T16:37:51.596Z,45.50
2017-12-29T16:40:19.224Z,45.30
2017-12-29T16:42:46.848Z,45.30
2017-12-29T16:45:14.559Z,45.50
2017-12-29T16:47:42.205Z,45.80
2017-12-29T16:50:09.835Z,47.00
2017-12-29T16:52:37.540Z,45.70
2017-12-29T16:55:05.154Z,45.10
2017-12-29T16:57:32.780Z,45.80
2017-12-29T17:00:00.486Z,46.20
2017-12-29T17:02:28.931Z,47.10
2017-12-29T17:04:56.541Z,45.50
2017-12-29T17:07:24.244Z,45.60
2017-12-29T17:09:51.875Z,47.50
2017-12-29T17:12:19.506Z,46.20
2017-12-29T17:14:47.190Z,46.90
2017-12-29T17:17:14.850Z,47.90
2017-12-29T17:24:51.259Z,46.50
2017-12-29T17:27:18.892Z,46.00
2017-12-29T17:29:46.593Z,46.80
2017-12-29T17:34:41.855Z,46.90
2017-12-29T17:37:09.528Z,46.90
2017-12-29T17:39:37.151Z,47.70
2017-12-29T17:42:04.786Z,47.00
2017-12-29T17:44:32.462Z,47.50
2017-12-29T17:47:00.100Z,47.30
2017-12-29T17:49:27.713Z,46.70
2017-12-29T17:51:55.398Z,47.30
2017-12-29T17:54:23.023Z,47.30
2017-12-29T17:56:50.655Z,46.80
2017-12-29T17:59:18.352Z,46.90
2017-12-29T18:01:45.983Z,47.00
2017-12-29T18:04:13.606Z,47.30
2017-12-29T18:06:41.310Z,47.90
2017-12-29T18:09:09.473Z,46.70
2017-12-29T18:11:37.102Z,46.90
2017-12-29T18:14:04.782Z,50.50
2017-12-29T18:16:32.422Z,46.50
2017-12-29T18:19:00.059Z,46.90
2017-12-29T18:21:27.751Z,47.90
2017-12-29T18:23:55.394Z,48.30
2017-12-29T18:26:23.006Z,49.00
2017-12-29T18:28:50.707Z,49.60
2017-12-29T18:31:18.344Z,49.80
2017-12-29T18:33:45.972Z,49.40
2017-12-29T18:36:13.662Z,49.30
2017-12-29T18:38:42.131Z,50.20
2017-12-29T18:43:49.969Z,50.30
2017-12-29T18:46:17.598Z,50.60
2017-12-29T18:48:46.048Z,51.20
2017-12-29T18:51:13.742Z,52.00
2017-12-29T18:53:42.181Z,52.50
2017-12-29T18:56:09.809Z,52.80
2017-12-29T18:58:37.517Z,54.20
2017-12-29T19:03:32.781Z,54.70
2017-12-29T19:06:00.487Z,54.80
2017-12-29T19:10:55.740Z,55.20
2017-12-29T19:13:24.401Z,55.80
2017-12-29T19:18:20.555Z,56.20
2017-12-29T19:20:48.749Z,55.80
2017-12-29T19:23:16.378Z,54.50
2017-12-29T19:28:12.462Z,54.60
2017-12-29T19:30:41.054Z,55.30
2017-12-29T19:33:08.690Z,55.30
2017-12-29T19:35:36.382Z,54.10
2017-12-29T19:38:04.009Z,54.80
2017-12-29T19:40:31.640Z,55.50
2017-12-29T19:45:26.965Z,54.80
2017-12-29T19:47:54.599Z,55.80
2017-12-29T19:50:22.298Z,55.40
2017-12-29T19:52:50.792Z,55.20
2017-12-29T19:55:18.442Z,54.80
2017-12-29T19:57:46.138Z,56.60
2017-12-29T20:00:13.771Z,57.10
2017-12-29T20:02:41.403Z,57.70
2017-12-29T20:07:48.203Z,57.00
2017-12-29T20:10:15.899Z,57.70
2017-12-29T20:12:43.543Z,56.00
2017-12-29T20:15:11.177Z,58.50
2017-12-29T20:17:39.535Z,59.70
2017-12-29T20:20:07.162Z,59.00
2017-12-29T20:22:34.793Z,58.10
2017-12-29T20:25:03.432Z,58.10
2017-12-29T20:27:31.063Z,57.80
2017-12-29T20:29:58.702Z,57.30
2017-12-29T20:32:26.407Z,57.30
2017-12-29T20:34:54.043Z,57.30
2017-12-29T20:37:21.676Z,58.00
2017-12-29T20:39:51.512Z,57.80
2017-12-29T20:42:19.152Z,59.00
2017-12-29T20:44:46.790Z,56.50
2017-12-29T20:47:14.504Z,57.10
2017-12-29T20:49:42.158Z,57.00
2017-12-29T20:52:09.796Z,57.40
2017-12-29T20:54:37.502Z,57.50
2017-12-29T20:57:05.142Z,57.80
2017-12-29T20:59:32.773Z,57.30
2017-12-29T21:02:00.510Z,56.90
2017-12-29T21:04:28.150Z,57.70
2017-12-29T21:06:55.799Z,58.40
2017-12-29T21:09:23.521Z,57.00
2017-12-29T21:11:51.965Z,58.00
2017-12-29T21:14:19.603Z,57.90
2017-12-29T21:16:47.327Z,58.10
2017-12-29T21:19:14.961Z,58.50
2017-12-29T21:21:42.599Z,58.80
2017-12-29T21:24:10.283Z,58.40
2017-12-29T21:26:37.924Z,58.20
2017-12-29T21:31:45.617Z,56.20
2017-12-29T21:34:13.251Z,55.30
2017-12-29T21:36:41.717Z,56.10
2017-12-29T21:39:09.442Z,57.90
2017-12-29T21:41:37.094Z,60.00
2017-12-29T21:44:04.720Z,62.70
2017-12-29T21:46:32.427Z,64.80
2017-12-29T21:49:00.875Z,67.20
2017-12-29T21:51:28.516Z,71.60
2017-12-29T21:53:56.216Z,74.30
2017-12-29T21:56:23.864Z,76.80
2017-12-29T21:58:51.493Z,78.80
2017-12-29T22:01:19.203Z,79.90
2017-12-29T22:06:26.401Z,81.80
2017-12-29T22:08:54.051Z,82.60
2017-12-29T22:11:21.686Z,83.60
2017-12-29T22:13:49.392Z,85.00
2017-12-29T22:16:17.039Z,85.90
2017-12-29T22:18:44.679Z,85.90
2017-12-29T22:21:12.354Z,85.80
2017-12-29T22:23:39.989Z,85.30
2017-12-29T22:26:07.624Z,85.90
2017-12-29T22:28:35.335Z,87.30
2017-12-29T22:31:02.960Z,87.50
2017-12-29T22:33:30.587Z,86.50
2017-12-29T22:35:58.275Z,86.20
2017-12-29T22:38:25.906Z,86.80
2017-12-29T22:43:21.230Z,87.80
2017-12-29T22:45:48.860Z,87.50
2017-12-29T22:48:16.488Z,87.30
2017-12-29T22:50:44.177Z,88.00
2017-12-29T22:53:12.569Z,87.70
2017-12-29T22:55:40.201Z,87.40
2017-12-29T22:58:07.880Z,87.70
2017-12-29T23:00:35.505Z,88.50
2017-12-29T23:03:03.137Z,87.50
2017-12-29T23:05:32.203Z,86.90
2017-12-29T23:07:59.763Z,86.60
2017-12-29T23:10:27.404Z,87.00
2017-12-29T23:12:55.109Z,87.00
2017-12-29T23:15:22.737Z,87.40
2017-12-29T23:17:50.356Z,87.40
2017-12-29T23:20:18.031Z,86.90
2017-12-29T23:22:45.660Z,87.20
2017-12-29T23:27:52.486Z,87.60
2017-12-29T23:30:20.176Z,87.30
2017-12-29T23:32:47.813Z,87.20
2017-12-29T23:35:15.490Z,87.40
2017-12-29T23:37:43.115Z,87.20
2017-12-29T23:40:10.748Z,87.30
2017-12-29T23:42:38.443Z,86.90
2017-12-29T23:45:06.066Z,86.70
2017-12-29T23:47:33.699Z,86.40
2017-12-29T23:50:01.415Z,86.40
2017-12-29T23:52:29.026Z,85.90
2017-12-29T23:54:56.654Z,85.40
2017-12-29T23:57:24.356Z,85.20
2017-12-29T23:59:51.976Z,85.00
